createdAt,value
2019-03-31T00:03:02.777Z,7.7
2019-03-31T00:08:05.383Z,7.6
2019-03-31T00:12:27.703Z,7.5
2019-03-31T00:17:28.466Z,7.5
2019-03-31T00:22:28.285Z,7.4
2019-03-31T00:27:28.286Z,7.3
2019-03-31T00:32:27.871Z,7.3
2019-03-31T00:37:27.738Z,7.2
2019-03-31T00:42:27.695Z,7.1
2019-03-31T00:47:28.743Z,7.0
2019-03-31T00:52:27.202Z,6.9
2019-03-31T00:57:27.261Z,6.9
2019-03-31T01:02:28.124Z,6.9
2019-03-31T01:07:27.930Z,6.8
2019-03-31T01:12:27.702Z,6.7
2019-03-31T01:17:27.858Z,6.7
2019-03-31T01:22:28.584Z,6.7
2019-03-31T01:27:27.471Z,6.6
2019-03-31T01:32:27.591Z,6.5
2019-03-31T01:37:28.281Z,6.5
2019-03-31T01:42:27.702Z,6.4
2019-03-31T01:47:27.741Z,6.3
2019-03-31T01:52:27.954Z,6.2
2019-03-31T01:57:29.585Z,6.2
2019-03-31T02:02:27.670Z,6.0
2019-03-31T02:07:27.151Z,6.0
2019-03-31T02:12:27.981Z,6.0
2019-03-31T02:17:27.999Z,5.9
2019-03-31T02:22:28.009Z,5.8
2019-03-31T02:27:27.736Z,5.7
2019-03-31T02:32:27.723Z,5.7
2019-03-31T02:37:27.510Z,5.6
2019-03-31T02:42:27.627Z,5.6
2019-03-31T02:47:27.634Z,5.5
2019-03-31T02:52:27.481Z,5.5
2019-03-31T02:57:28.044Z,5.4
2019-03-31T03:02:40.465Z,5.4
2019-03-31T03:07:27.599Z,5.3
2019-03-31T03:12:28.324Z,5.3
2019-03-31T03:17:28.526Z,5.2
2019-03-31T03:22:28.044Z,5.2
2019-03-31T03:27:27.750Z,5.1
2019-03-31T03:32:27.778Z,5.1
2019-03-31T03:37:29.025Z,5.1
2019-03-31T03:42:28.234Z,5.0
2019-03-31T03:47:28.124Z,5.0
2019-03-31T03:52:27.433Z,4.8
2019-03-31T03:57:28.101Z,4.7
2019-03-31T04:02:28.339Z,4.7
2019-03-31T04:07:28.032Z,4.7
2019-03-31T04:12:27.333Z,4.7
2019-03-31T04:17:28.150Z,4.7
2019-03-31T04:22:28.403Z,4.7
2019-03-31T04:27:28.372Z,4.6
2019-03-31T04:32:28.033Z,4.5
2019-03-31T04:37:28.429Z,4.5
2019-03-31T04:42:28.431Z,4.4
2019-03-31T04:47:33.179Z,4.4
2019-03-31T04:52:28.095Z,4.3
2019-03-31T04:57:28.369Z,4.4
2019-03-31T05:02:28.318Z,4.4
2019-03-31T05:07:28.410Z,4.4
2019-03-31T05:12:28.705Z,4.4
2019-03-31T05:17:28.632Z,4.4
2019-03-31T05:22:28.829Z,4.4
2019-03-31T05:27:29.379Z,4.5
2019-03-31T05:32:27.585Z,4.5
2019-03-31T05:37:28.610Z,4.5
2019-03-31T05:42:29.050Z,4.7
2019-03-31T05:47:28.471Z,4.6
2019-03-31T05:52:28.639Z,4.9
2019-03-31T05:57:28.684Z,5.0
2019-03-31T06:02:28.722Z,5.2
2019-03-31T06:07:28.654Z,5.6
2019-03-31T06:12:28.174Z,5.6
2019-03-31T06:17:28.842Z,5.9
2019-03-31T06:22:28.278Z,6.1
2019-03-31T06:27:28.235Z,6.4
2019-03-31T06:32:28.074Z,6.8
2019-03-31T06:37:28.318Z,7.0
2019-03-31T06:42:28.512Z,7.1
2019-03-31T06:47:29.085Z,7.6
2019-03-31T06:52:28.897Z,7.5
2019-03-31T06:57:28.071Z,7.9
2019-03-31T07:02:28.704Z,8.2
2019-03-31T07:07:28.278Z,8.4
2019-03-31T07:12:28.682Z,8.7
2019-03-31T07:17:28.508Z,9.0
2019-03-31T07:22:27.753Z,9.4
2019-03-31T07:27:27.858Z,10.1
2019-03-31T07:32:28.311Z,10.0
2019-03-31T07:37:28.445Z,10.4
2019-03-31T07:42:29.483Z,11.0
2019-03-31T07:47:28.175Z,11.0
2019-03-31T07:52:28.547Z,11.4
2019-03-31T07:57:28.185Z,11.7
2019-03-31T08:02:27.747Z,12.1
2019-03-31T08:07:27.958Z,12.9
2019-03-31T08:12:28.620Z,12.8
2019-03-31T08:17:28.676Z,13.2
2019-03-31T08:22:28.757Z,13.7
2019-03-31T08:27:28.937Z,14.0
2019-03-31T08:32:28.491Z,14.8
2019-03-31T08:37:28.295Z,14.8
2019-03-31T08:42:29.085Z,15.3
2019-03-31T08:47:28.743Z,15.7
2019-03-31T08:52:27.904Z,16.1
2019-03-31T08:57:28.001Z,16.5
2019-03-31T09:02:28.870Z,17.0
2019-03-31T09:07:30.836Z,18.0
2019-03-31T09:12:29.439Z,17.9
2019-03-31T09:17:28.933Z,18.9
2019-03-31T09:22:28.752Z,18.8
2019-03-31T09:27:28.839Z,19.3
2019-03-31T09:32:27.540Z,19.8
2019-03-31T09:37:28.510Z,20.2
2019-03-31T09:42:28.020Z,20.7
2019-03-31T09:47:28.291Z,21.5
2019-03-31T09:52:28.092Z,21.9
2019-03-31T09:57:28.722Z,21.8
2019-03-31T10:02:27.912Z,22.7
2019-03-31T10:07:29.178Z,22.7
2019-03-31T10:12:28.738Z,23.1
2019-03-31T10:17:29.868Z,23.5
2019-03-31T10:22:29.119Z,23.7
2019-03-31T10:27:28.235Z,23.9
2019-03-31T10:32:28.255Z,24.2
2019-03-31T10:37:28.785Z,24.5
2019-03-31T10:42:28.310Z,25.5
2019-03-31T10:47:28.803Z,25.5
2019-03-31T10:52:28.329Z,25.8
2019-03-31T10:57:28.515Z,25.9
2019-03-31T11:02:28.489Z,26.0
2019-03-31T11:07:28.333Z,26.4
2019-03-31T11:12:28.111Z,26.6
2019-03-31T11:17:28.389Z,26.7
2019-03-31T11:22:27.885Z,26.0
2019-03-31T11:27:28.474Z,26.0
2019-03-31T11:32:28.597Z,24.6
2019-03-31T11:37:28.898Z,24.6
2019-03-31T11:42:27.829Z,24.4
2019-03-31T11:47:28.891Z,24.3
2019-03-31T11:52:27.824Z,23.9
2019-03-31T11:57:28.004Z,23.4
2019-03-31T12:02:28.948Z,23.3
2019-03-31T12:07:28.837Z,23.1
2019-03-31T12:12:28.631Z,22.9
2019-03-31T12:17:29.709Z,22.8
2019-03-31T12:22:28.307Z,22.6
2019-03-31T12:27:28.157Z,22.6
2019-03-31T12:32:29.121Z,23.4
2019-03-31T12:37:41.510Z,23.4
2019-03-31T12:42:28.272Z,24.0
2019-03-31T12:47:28.740Z,24.5
2019-03-31T12:52:27.542Z,25.0
2019-03-31T12:57:28.893Z,25.1
2019-03-31T13:02:27.766Z,25.3
2019-03-31T13:07:28.761Z,25.7
2019-03-31T13:12:29.353Z,25.7
2019-03-31T13:17:28.627Z,26.1
2019-03-31T13:22:28.460Z,26.8
2019-03-31T13:27:28.010Z,27.5
2019-03-31T13:32:28.690Z,28.3
2019-03-31T13:37:28.838Z,28.7
2019-03-31T13:42:28.264Z,28.8
2019-03-31T13:47:28.235Z,29.3
2019-03-31T13:52:28.874Z,29.9
2019-03-31T13:57:29.694Z,29.9
2019-03-31T14:02:28.530Z,29.5
2019-03-31T14:07:29.209Z,28.8
2019-03-31T14:12:28.091Z,28.5
2019-03-31T14:17:28.336Z,28.8
2019-03-31T14:22:28.623Z,29.3
2019-03-31T14:27:28.428Z,30.1
2019-03-31T14:32:29.108Z,32.0
2019-03-31T14:37:29.109Z,32.0
2019-03-31T14:42:28.631Z,33.0
2019-03-31T14:47:28.980Z,34.1
2019-03-31T14:52:28.242Z,34.0
2019-03-31T14:57:27.981Z,37.4
2019-03-31T15:02:28.961Z,38.1
2019-03-31T15:07:29.228Z,36.6
2019-03-31T15:12:29.045Z,36.5
2019-03-31T15:17:28.093Z,36.8
2019-03-31T15:22:29.438Z,37.5
2019-03-31T15:27:28.770Z,38.4
2019-03-31T15:32:29.250Z,39.5
2019-03-31T15:37:28.510Z,40.2
2019-03-31T15:42:28.319Z,40.6
2019-03-31T15:47:28.739Z,40.6
2019-03-31T15:52:28.516Z,41.6
2019-03-31T15:57:27.834Z,41.6
2019-03-31T16:02:28.401Z,41.5
2019-03-31T16:07:28.839Z,39.2
2019-03-31T16:12:28.432Z,40.6
2019-03-31T16:17:28.535Z,41.4
2019-03-31T16:22:28.732Z,42.0
2019-03-31T16:27:28.423Z,41.9
2019-03-31T16:32:28.236Z,41.3
2019-03-31T16:37:27.789Z,41.0
2019-03-31T16:42:29.240Z,40.9
2019-03-31T16:47:27.708Z,40.8
2019-03-31T16:52:28.238Z,40.5
2019-03-31T16:57:28.655Z,40.0
2019-03-31T17:02:28.709Z,39.5
2019-03-31T17:07:28.025Z,38.7
2019-03-31T17:12:28.535Z,37.2
2019-03-31T17:17:28.332Z,33.2
2019-03-31T17:22:28.083Z,33.1
2019-03-31T17:27:28.282Z,31.9
2019-03-31T17:32:29.130Z,30.7
2019-03-31T17:37:28.594Z,28.4
2019-03-31T17:42:28.110Z,28.3
2019-03-31T17:47:28.192Z,26.2
2019-03-31T17:52:28.181Z,24.2
2019-03-31T17:57:27.463Z,22.7
2019-03-31T18:02:30.338Z,21.4
2019-03-31T18:07:28.664Z,20.4
2019-03-31T18:12:31.022Z,19.7
2019-03-31T18:17:28.851Z,18.5
2019-03-31T18:22:27.643Z,18.4
2019-03-31T18:27:28.276Z,18.1
2019-03-31T18:32:27.927Z,17.8
2019-03-31T18:37:28.399Z,17.5
2019-03-31T18:42:27.848Z,17.2
2019-03-31T18:47:28.270Z,16.9
2019-03-31T18:52:28.163Z,16.7
2019-03-31T18:57:27.924Z,16.4
2019-03-31T19:02:27.465Z,16.2
2019-03-31T19:07:28.475Z,16.0
2019-03-31T19:12:28.349Z,15.4
2019-03-31T19:17:28.721Z,15.3
2019-03-31T19:22:28.642Z,14.9
2019-03-31T19:27:27.740Z,14.6
2019-03-31T19:32:28.660Z,14.6
2019-03-31T19:37:27.220Z,14.3
2019-03-31T19:42:27.703Z,14.2
2019-03-31T19:47:27.662Z,14.1
2019-03-31T19:52:28.013Z,13.7
2019-03-31T19:57:28.307Z,13.7
2019-03-31T20:02:27.546Z,13.6
2019-03-31T20:07:28.577Z,13.4
2019-03-31T20:12:27.873Z,13.3
2019-03-31T20:17:27.810Z,13.1
2019-03-31T20:22:29.356Z,13.1
2019-03-31T20:27:28.927Z,13.0
2019-03-31T20:32:28.424Z,12.9
2019-03-31T20:37:28.379Z,12.9
2019-03-31T20:42:28.312Z,12.8
2019-03-31T20:47:27.936Z,12.8
2019-03-31T20:52:28.015Z,12.6
2019-03-31T20:57:26.972Z,12.6
2019-03-31T21:02:28.527Z,12.6
2019-03-31T21:07:28.114Z,12.6
2019-03-31T21:12:28.310Z,12.5
2019-03-31T21:17:28.107Z,12.4
2019-03-31T21:22:28.355Z,12.4
2019-03-31T21:27:27.892Z,12.2
2019-03-31T21:32:28.439Z,12.1
2019-03-31T21:37:27.980Z,12.1
2019-03-31T21:42:27.774Z,12.0
2019-03-31T21:47:28.318Z,12.0
2019-03-31T21:52:27.317Z,11.9
2019-03-31T21:57:27.070Z,11.8
2019-03-31T22:02:28.103Z,11.8
2019-03-31T22:07:27.476Z,11.8
2019-03-31T22:12:27.830Z,11.5
2019-03-31T22:23:04.945Z,11.3
2019-03-31T22:28:03.769Z,11.3
2019-03-31T22:33:04.366Z,11.2
2019-03-31T22:38:03.732Z,11.2
2019-03-31T22:43:03.711Z,11.1
2019-03-31T22:48:04.547Z,11.0
2019-03-31T22:53:03.247Z,10.9
2019-03-31T22:58:03.911Z,10.9
2019-03-31T23:03:03.561Z,10.7
2019-03-31T23:08:03.251Z,10.7
2019-03-31T23:12:28.662Z,10.6
2019-03-31T23:17:28.141Z,10.5
2019-03-31T23:22:28.687Z,10.5
2019-03-31T23:27:27.809Z,10.4
2019-03-31T23:32:27.839Z,10.4
2019-03-31T23:37:27.912Z,10.3
2019-03-31T23:42:29.137Z,10.2
2019-03-31T23:47:27.548Z,10.1
2019-03-31T23:52:27.380Z,10.1
2019-03-31T23:57:27.387Z,10.1
